Time;durP1;ratioP1;P1;durP2;ratioP2;P2;SDS_P1;SDS_P2;PMS_P1;PMS_P2;Temp;Humidity;BMP_temperature;BMP_pressure;BME280_temperature;BME280_humidity;BME280_pressure;Samples;Min_cycle;Max_cycle;Signal;HPM_P1;HPM_P2
2023/06/14 00:01:13;;;;;;;9.50;6.60;;;;;;;17.91;83.24;94956.72;5029058;28;20075;-82
2023/06/14 00:03:38;;;;;;;20.42;5.72;;;;;;;17.44;83.25;94885.50;5028893;28;20562;-82
2023/06/14 00:06:04;;;;;;;12.70;6.10;;;;;;;17.98;82.68;94940.13;5028464;28;20084;-82
2023/06/14 00:08:30;;;;;;;12.70;5.85;;;;;;;17.61;82.17;94880.88;5029326;28;20101;-82
2023/06/14 00:10:55;;;;;;;12.80;6.03;;;;;;;18.06;82.98;94953.47;4994625;28;20040;-82
2023/06/14 00:13:21;;;;;;;11.55;5.72;;;;;;;17.94;82.34;94931.13;5028498;28;20035;-82
2023/06/14 00:15:47;;;;;;;7.88;5.43;;;;;;;17.80;82.34;94898.41;5025999;28;20034;-82
2023/06/14 00:18:13;;;;;;;6.68;5.45;;;;;;;17.94;82.23;94898.94;5015673;28;20034;-82
2023/06/14 00:20:39;;;;;;;14.90;6.18;;;;;;;17.86;81.86;94875.63;5022996;28;20057;-82
2023/06/14 00:23:04;;;;;;;9.00;5.50;;;;;;;18.15;81.84;94902.44;5008453;28;20037;-82
2023/06/14 00:25:30;;;;;;;11.25;6.75;;;;;;;18.30;82.19;94920.63;5010248;28;20045;-82
2023/06/14 00:27:57;;;;;;;8.48;6.60;;;;;;;18.40;82.22;94933.66;5008613;28;20030;-82
2023/06/14 00:30:22;;;;;;;8.77;6.00;;;;;;;18.16;82.04;94889.81;5008644;28;20037;-82
2023/06/14 00:32:48;;;;;;;8.77;5.72;;;;;;;18.20;81.12;94922.91;5023662;28;20026;-82
2023/06/14 00:35:14;;;;;;;7.95;5.47;;;;;;;17.86;81.85;94881.78;5011872;28;20033;-82
2023/06/14 00:37:40;;;;;;;10.65;5.40;;;;;;;18.11;81.23;94901.50;5029956;28;20080;-82
2023/06/14 00:40:06;;;;;;;8.38;5.30;;;;;;;18.10;81.57;94902.63;5028397;28;20425;-82
2023/06/14 00:42:32;;;;;;;9.95;5.78;;;;;;;18.38;81.68;94924.38;5027664;28;20026;-82
2023/06/14 00:44:57;;;;;;;13.20;5.78;;;;;;;18.41;81.59;94921.78;5029004;28;20029;-82
2023/06/14 00:47:23;;;;;;;10.88;6.28;;;;;;;17.92;81.68;94837.59;5029722;28;20021;-82
2023/06/14 00:49:53;;;;;;;11.10;6.25;;;;;;;18.47;81.90;94923.16;5028009;28;20653;-82
2023/06/14 00:52:19;;;;;;;13.40;6.43;;;;;;;17.96;81.98;94843.06;5028062;28;20590;-82
2023/06/14 00:54:44;;;;;;;14.88;6.78;;;;;;;18.50;82.21;94921.72;5027989;28;20175;-82
2023/06/14 00:57:10;;;;;;;8.38;6.05;;;;;;;18.48;82.15;94915.88;5029353;28;20104;-82
2023/06/14 00:59:44;;;;;;;10.35;5.72;;;;;;;18.47;81.95;94917.00;5001883;28;20131;-82
2023/06/14 01:02:11;;;;;;;10.45;6.32;;;;;;;18.16;81.95;94865.66;5020614;28;20044;-82
2023/06/14 01:04:38;;;;;;;8.65;6.18;;;;;;;18.00;81.91;94844.00;5027752;28;20031;-82
2023/06/14 01:07:33;;;;;;;8.07;5.38;;;;;;;18.40;81.80;94914.06;5025434;28;20115;-82
2023/06/14 01:10:21;;;;;;;6.60;5.35;;;;;;;18.44;81.57;94915.00;5027661;28;20132;-82
2023/06/14 01:13:09;;;;;;;11.88;6.07;;;;;;;18.35;81.03;94920.44;5027971;28;20111;-81
2023/06/14 01:15:36;;;;;;;9.63;5.82;;;;;;;18.43;81.05;94919.56;5028133;28;20112;-82
2023/06/14 01:18:05;;;;;;;13.88;6.28;;;;;;;17.78;81.13;94810.22;5029421;28;20025;-82
2023/06/14 01:20:32;;;;;;;8.27;5.53;;;;;;;17.95;80.76;94852.22;5027871;28;20420;-82
2023/06/14 01:22:59;;;;;;;7.15;5.15;;;;;;;18.13;80.70;94870.56;5027703;28;20029;-82
2023/06/14 01:25:25;;;;;;;9.70;5.95;;;;;;;18.46;80.83;94926.19;5027849;28;20488;-82
2023/06/14 01:28:04;;;;;;;11.63;6.28;;;;;;;18.38;80.82;94910.94;5027990;28;20044;-82
2023/06/14 01:30:30;;;;;;;12.02;5.53;;;;;;;18.47;80.57;94920.47;5027789;28;20060;-82
2023/06/14 01:32:57;;;;;;;15.00;6.50;;;;;;;18.52;80.12;94922.19;5027704;28;20083;-82
2023/06/14 01:35:23;;;;;;;8.25;6.50;;;;;;;18.08;79.99;94859.22;5027848;28;20036;-82
2023/06/14 01:37:50;;;;;;;9.68;6.30;;;;;;;18.51;80.38;94926.78;5028794;28;20030;-82
2023/06/14 01:40:17;;;;;;;18.42;6.80;;;;;;;18.55;80.72;94912.66;5023618;28;20061;-82
2023/06/14 01:42:45;;;;;;;12.13;6.03;;;;;;;17.85;80.71;94805.09;5015241;28;20052;-82
2023/06/14 01:45:11;;;;;;;10.73;6.60;;;;;;;18.28;80.92;94863.00;5029565;28;20039;-78
2023/06/14 01:47:36;;;;;;;8.65;6.50;;;;;;;18.37;80.91;94886.00;5029512;28;20554;-80
2023/06/14 01:50:03;;;;;;;9.20;6.90;;;;;;;17.92;81.20;94812.66;5027869;28;20034;-80
2023/06/14 01:52:28;;;;;;;11.40;7.00;;;;;;;17.80;81.07;94799.16;5016225;28;20026;-80
2023/06/14 01:54:54;;;;;;;8.00;6.60;;;;;;;18.56;80.48;94919.63;5021937;28;20041;-80
2023/06/14 01:57:20;;;;;;;11.95;6.82;;;;;;;18.46;79.94;94910.84;5031091;28;20063;-80
2023/06/14 01:59:48;;;;;;;9.05;6.50;;;;;;;18.39;80.44;94901.75;5015135;28;20033;-80
2023/06/14 02:02:14;;;;;;;10.55;6.10;;;;;;;18.18;79.66;94909.81;5029305;28;20025;-80
2023/06/14 02:04:40;;;;;;;12.48;6.32;;;;;;;18.20;79.79;94906.81;5011462;28;20025;-80
2023/06/14 02:07:06;;;;;;;10.10;6.05;;;;;;;18.19;79.52;94924.03;5010991;28;20060;-80
2023/06/14 02:09:31;;;;;;;7.78;6.60;;;;;;;18.23;79.26;94919.59;5012587;28;20041;-80
2023/06/14 02:11:57;;;;;;;8.43;6.00;;;;;;;18.19;79.61;94913.28;5015214;28;20026;-80
2023/06/14 02:14:23;;;;;;;8.88;6.32;;;;;;;18.01;79.76;94901.88;5025128;28;20037;-80
2023/06/14 02:16:49;;;;;;;13.65;6.65;;;;;;;17.85;79.86;94876.78;5019784;28;20500;-80
2023/06/14 02:19:16;;;;;;;9.48;7.05;;;;;;;17.88;80.84;94929.75;5032107;28;20052;-80
2023/06/14 02:21:42;;;;;;;9.98;6.95;;;;;;;17.90;81.06;94944.44;5030709;28;20034;-80
2023/06/14 02:24:07;;;;;;;8.68;7.05;;;;;;;17.43;81.39;94879.34;5019642;28;20026;-79
2023/06/14 02:26:33;;;;;;;8.63;7.28;;;;;;;17.87;81.21;94950.44;5010696;28;20398;-80
2023/06/14 02:28:58;;;;;;;10.77;7.20;;;;;;;17.52;81.77;94916.84;5010543;28;20037;-80
2023/06/14 02:31:24;;;;;;;14.73;7.70;;;;;;;17.69;81.76;94949.75;5026471;28;20040;-80
2023/06/14 02:33:49;;;;;;;14.05;7.55;;;;;;;17.70;82.25;94947.84;5030464;28;20195;-80
2023/06/14 02:36:15;;;;;;;10.07;7.30;;;;;;;17.77;81.79;94948.13;5031853;28;20037;-80
2023/06/14 02:38:41;;;;;;;10.75;7.00;;;;;;;17.75;81.90;94944.97;5031631;28;20029;-80
2023/06/14 02:41:06;;;;;;;9.25;7.43;;;;;;;17.50;81.93;94900.28;5031866;28;20033;-80
2023/06/14 02:43:32;;;;;;;12.68;7.45;;;;;;;17.71;81.50;94927.94;5031570;28;20033;-80
2023/06/14 02:45:57;;;;;;;13.07;7.07;;;;;;;17.61;81.93;94922.94;5029630;28;20060;-80
2023/06/14 02:48:22;;;;;;;15.55;8.13;;;;;;;17.58;81.22;94926.25;5010277;28;20026;-80
2023/06/14 02:50:48;;;;;;;11.18;7.07;;;;;;;17.85;81.01;94949.97;5010172;28;20040;-80
2023/06/14 02:53:13;;;;;;;9.65;7.28;;;;;;;17.92;80.77;94942.22;5010256;28;20424;-80
2023/06/14 02:55:39;;;;;;;10.23;6.90;;;;;;;17.58;80.83;94896.78;5010530;28;20037;-80
2023/06/14 02:58:05;;;;;;;12.40;8.05;;;;;;;17.59;80.03;94888.41;5011906;28;20068;-80
2023/06/14 03:00:31;;;;;;;8.10;6.75;;;;;;;17.65;80.21;94899.75;5011372;28;20180;-80
2023/06/14 03:02:56;;;;;;;8.43;6.97;;;;;;;17.88;79.80;94948.53;5011290;28;20070;-80
2023/06/14 03:05:22;;;;;;;15.27;7.53;;;;;;;17.60;80.06;94922.16;5009970;28;20037;-80
2023/06/14 03:07:48;;;;;;;10.68;7.43;;;;;;;17.37;80.11;94877.97;5009433;28;20054;-80
2023/06/14 03:10:14;;;;;;;14.77;8.02;;;;;;;17.74;80.43;94935.38;5023647;28;20116;-80
2023/06/14 03:12:39;;;;;;;22.88;7.90;;;;;;;17.88;80.60;94967.31;5029398;28;20121;-80
2023/06/14 03:15:05;;;;;;;8.32;6.32;;;;;;;17.71;80.47;94928.75;5029756;28;20029;-80
2023/06/14 03:17:33;;;;;;;11.00;7.28;;;;;;;17.73;80.60;94939.94;5029527;28;20132;-80
2023/06/14 03:20:00;;;;;;;10.57;6.95;;;;;;;17.90;80.33;94957.06;5031204;28;20538;-80
2023/06/14 03:22:25;;;;;;;15.45;8.05;;;;;;;17.86;80.69;94956.13;5030575;28;20506;-80
2023/06/14 03:24:52;;;;;;;11.93;7.07;;;;;;;17.75;80.44;94934.25;5029113;28;20120;-80
2023/06/14 03:27:18;;;;;;;14.50;8.15;;;;;;;17.81;80.53;94945.56;5029364;28;20036;-80
2023/06/14 03:29:44;;;;;;;13.00;7.88;;;;;;;17.57;80.79;94941.56;5012611;28;20025;-80
2023/06/14 03:32:09;;;;;;;11.48;7.63;;;;;;;16.85;80.69;94829.19;5029482;28;20029;-80
2023/06/14 03:34:35;;;;;;;17.98;7.63;;;;;;;17.80;80.58;94960.09;5029219;28;20029;-80
2023/06/14 03:37:00;;;;;;;14.50;8.27;;;;;;;17.83;80.57;94972.88;5029156;28;20025;-80
2023/06/14 03:39:26;;;;;;;14.00;7.10;;;;;;;17.76;81.12;94969.91;5029106;28;20091;-80
2023/06/14 03:41:52;;;;;;;15.43;8.55;;;;;;;17.71;80.90;94958.25;5030761;28;20151;-80
2023/06/14 03:44:19;;;;;;;15.32;8.10;;;;;;;17.87;80.57;94979.94;5019192;28;20029;-80
2023/06/14 03:46:45;;;;;;;14.05;8.00;;;;;;;17.66;81.29;94965.69;5020072;28;20037;-80
2023/06/14 03:49:11;;;;;;;18.08;7.93;;;;;;;17.08;81.05;94851.16;5029135;28;20393;-80
2023/06/14 03:51:36;;;;;;;16.48;8.32;;;;;;;17.72;80.81;94943.72;5017792;28;20496;-79
2023/06/14 03:54:02;;;;;;;15.95;8.77;;;;;;;17.71;80.48;94944.03;5022782;28;20033;-80
2023/06/14 03:56:27;;;;;;;20.05;9.35;;;;;;;17.92;80.95;94979.78;5030236;28;20091;-80
2023/06/14 03:58:53;;;;;;;15.95;8.35;;;;;;;17.29;80.74;94870.75;5029697;28;20102;-80
2023/06/14 04:01:18;;;;;;;18.92;8.75;;;;;;;18.05;80.50;94977.94;5028303;28;20059;-79
2023/06/14 04:03:44;;;;;;;19.63;8.18;;;;;;;17.83;80.69;94965.63;5028685;28;20072;-79
2023/06/14 04:06:09;;;;;;;13.13;8.32;;;;;;;17.94;80.42;94956.06;5029389;28;20053;-79
2023/06/14 04:08:35;;;;;;;16.48;8.18;;;;;;;17.82;80.31;94952.53;5046964;28;20406;-78
2023/06/14 04:11:01;;;;;;;17.35;7.50;;;;;;;17.88;80.29;94967.31;5043385;28;20025;-80
2023/06/14 04:13:27;;;;;;;17.08;8.30;;;;;;;17.63;79.83;94926.09;5036587;28;20522;-80
2023/06/14 04:15:52;;;;;;;14.80;8.35;;;;;;;17.95;80.12;94981.78;5042249;28;20052;-80
2023/06/14 04:18:19;;;;;;;12.23;7.97;;;;;;;17.94;79.54;94952.59;5047526;28;20028;-80
2023/06/14 04:20:45;;;;;;;13.25;8.25;;;;;;;17.83;79.35;94930.75;5036849;28;20029;-79
2023/06/14 04:23:21;;;;;;;13.50;8.13;;;;;;;17.99;79.16;94981.94;5035300;28;20463;-80
2023/06/14 04:25:47;;;;;;;15.13;8.68;;;;;;;18.17;78.79;94983.38;5040813;28;20077;-79
2023/06/14 04:28:17;;;;;;;14.63;8.63;;;;;;;17.62;78.56;94892.38;5029928;28;20032;-80
2023/06/14 04:30:47;;;;;;;14.98;8.32;;;;;;;17.84;79.07;94935.00;5012898;28;20037;-79
2023/06/14 04:33:14;;;;;;;14.00;8.77;;;;;;;18.01;78.43;94958.22;5005162;28;20052;-79
2023/06/14 04:35:40;;;;;;;15.35;8.73;;;;;;;18.24;78.25;94989.03;5032695;28;20029;-80
2023/06/14 04:38:13;;;;;;;13.23;8.68;;;;;;;18.22;78.38;94985.91;5027319;28;20116;-80
2023/06/14 04:40:42;;;;;;;20.23;9.73;;;;;;;17.28;78.48;94835.13;5017988;28;20078;-80
2023/06/14 04:43:10;;;;;;;13.50;9.05;;;;;;;18.21;77.82;94972.81;5040558;28;20518;-80
2023/06/14 04:45:36;;;;;;;13.73;9.75;;;;;;;17.66;78.10;94896.75;5039336;28;20030;-79
2023/06/14 04:48:02;;;;;;;17.40;9.00;;;;;;;17.93;78.43;94941.06;5024402;28;20084;-80
2023/06/14 04:50:29;;;;;;;13.30;10.10;;;;;;;18.00;77.91;94952.06;5038787;28;20139;-80
2023/06/14 04:52:55;;;;;;;18.42;11.15;;;;;;;18.17;78.50;94978.03;5044977;28;20024;-81
2023/06/14 04:55:20;;;;;;;17.50;10.70;;;;;;;18.25;78.11;94979.88;5025013;28;20071;-82
2023/06/14 04:57:46;;;;;;;13.73;10.38;;;;;;;18.15;78.05;94948.06;5019129;28;20021;-82
2023/06/14 05:00:12;;;;;;;16.10;10.52;;;;;;;18.44;78.08;94982.13;5041871;28;20055;-82
2023/06/14 05:02:37;;;;;;;13.75;10.48;;;;;;;18.35;77.74;94959.91;5021816;28;20462;-82
2023/06/14 05:05:07;;;;;;;17.00;9.93;;;;;;;18.46;77.58;94972.59;5020982;28;20048;-81
2023/06/14 05:07:37;;;;;;;22.23;11.00;;;;;;;17.97;77.92;94898.28;5036924;28;20049;-84
2023/06/14 05:10:03;;;;;;;17.00;11.00;;;;;;;17.17;77.85;94758.88;5027378;28;20045;-84
2023/06/14 05:12:29;;;;;;;15.75;11.00;;;;;;;18.75;77.72;94998.66;5039342;28;20013;-84
2023/06/14 05:14:54;;;;;;;17.45;11.52;;;;;;;18.61;77.62;94959.75;5037093;28;20399;-81
2023/06/14 05:17:20;;;;;;;20.10;11.85;;;;;;;19.00;76.92;95004.88;5026043;28;20043;-82
2023/06/14 05:19:46;;;;;;;15.73;11.10;;;;;;;18.87;76.61;94977.19;5046078;28;20037;-83
2023/06/14 05:22:11;;;;;;;13.68;10.90;;;;;;;18.38;75.98;94894.84;5018849;28;20615;-82
2023/06/14 05:24:37;;;;;;;15.07;12.07;;;;;;;18.65;75.77;94929.19;5016123;28;20074;-82
2023/06/14 05:27:03;;;;;;;16.95;12.32;;;;;;;18.90;75.31;94973.06;5024207;28;20089;-82
2023/06/14 05:29:40;;;;;;;17.67;12.32;;;;;;;18.74;74.94;94937.97;5027218;28;20038;-81
2023/06/14 05:32:06;;;;;;;18.75;11.77;;;;;;;18.89;74.43;94977.66;5023598;28;20028;-81
2023/06/14 05:34:31;;;;;;;21.13;13.38;;;;;;;19.02;74.70;94996.50;5036480;28;20124;-83
2023/06/14 05:36:56;;;;;;;29.00;13.68;;;;;;;18.76;74.60;94961.81;5036256;28;20047;-81
2023/06/14 05:39:27;;;;;;;21.35;13.25;;;;;;;19.06;74.16;94987.47;5023020;28;20813;-84
2023/06/14 05:41:56;;;;;;;23.38;14.13;;;;;;;18.30;73.75;94866.94;5026416;28;20032;-82
2023/06/14 05:44:21;;;;;;;23.25;13.93;;;;;;;19.08;73.52;94979.81;5033782;28;20037;-82
2023/06/14 05:46:47;;;;;;;28.63;14.90;;;;;;;19.41;73.29;95011.28;5022086;28;20072;-84
2023/06/14 05:49:12;;;;;;;31.50;14.80;;;;;;;19.12;72.82;94948.50;5029679;28;20373;-82
2023/06/14 05:51:38;;;;;;;19.33;12.70;;;;;;;19.63;72.43;95035.91;5041432;28;20119;-82
2023/06/14 05:54:03;;;;;;;25.45;13.23;;;;;;;19.72;72.54;95030.44;5041996;28;20033;-82
2023/06/14 05:56:29;;;;;;;20.25;14.45;;;;;;;19.32;71.66;94960.28;5038239;28;20614;-83
2023/06/14 05:58:55;;;;;;;22.48;12.75;;;;;;;19.13;71.33;94942.00;5031652;28;20029;-82
2023/06/14 06:01:20;;;;;;;23.27;14.07;;;;;;;18.89;71.91;94901.63;5037720;28;20140;-82
2023/06/14 06:03:45;;;;;;;28.10;16.20;;;;;;;19.60;72.02;95006.22;5016228;28;20075;-80
2023/06/14 06:06:12;;;;;;;35.08;15.27;;;;;;;19.57;72.28;95026.50;5015001;28;20057;-80
2023/06/14 06:08:38;;;;;;;25.90;16.35;;;;;;;19.43;71.70;94979.47;5034144;28;20028;-80
2023/06/14 06:11:03;;;;;;;35.15;16.52;;;;;;;19.94;71.39;95037.28;5034515;28;20033;-84
2023/06/14 06:13:29;;;;;;;33.72;15.88;;;;;;;19.89;71.92;95027.53;5016034;28;20364;-82
2023/06/14 06:15:54;;;;;;;23.65;15.30;;;;;;;19.79;70.82;94994.91;5036208;28;20526;-81
2023/06/14 06:18:21;;;;;;;26.63;14.23;;;;;;;19.83;70.58;94990.44;5023496;28;20033;-82
2023/06/14 06:20:47;;;;;;;28.75;15.02;;;;;;;19.98;70.33;94979.78;5036168;28;20048;-81
2023/06/14 06:23:12;;;;;;;23.23;15.23;;;;;;;19.90;70.36;95001.41;5038225;28;20771;-82
2023/06/14 06:25:38;;;;;;;28.48;15.30;;;;;;;19.93;69.61;94998.81;5020391;28;20112;-81
2023/06/14 06:28:03;;;;;;;22.05;14.20;;;;;;;20.06;69.61;95004.22;5040096;28;20041;-83
2023/06/14 06:30:29;;;;;;;21.77;13.60;;;;;;;20.19;70.10;95025.41;5034038;28;20075;-83
2023/06/14 06:32:55;;;;;;;24.95;13.43;;;;;;;20.21;69.47;95028.56;5021813;28;20658;-83
2023/06/14 06:35:21;;;;;;;21.83;13.43;;;;;;;19.82;68.71;94959.25;5020287;28;20025;-84
2023/06/14 06:37:46;;;;;;;20.27;15.02;;;;;;;20.17;68.95;95037.63;5021021;28;20030;-83
2023/06/14 06:40:12;;;;;;;20.58;14.77;;;;;;;19.38;68.67;94948.19;5038549;28;20621;-82
2023/06/14 06:42:37;;;;;;;23.95;14.23;;;;;;;19.98;68.78;95014.75;5022143;28;20037;-82
2023/06/14 06:45:04;;;;;;;22.40;14.57;;;;;;;20.33;68.68;95051.97;5021152;28;20515;-82
2023/06/14 06:47:29;;;;;;;21.50;14.38;;;;;;;20.02;68.25;94990.63;5038092;28;20134;-82
2023/06/14 06:49:55;;;;;;;21.92;14.25;;;;;;;19.96;68.13;94970.47;5035307;28;20620;-81
2023/06/14 06:52:20;;;;;;;16.40;13.65;;;;;;;20.20;67.93;94999.28;5030449;28;20036;-80
2023/06/14 06:54:46;;;;;;;22.40;13.98;;;;;;;20.38;68.27;95019.47;5019794;28;20040;-79
2023/06/14 06:57:12;;;;;;;18.85;13.90;;;;;;;20.44;68.46;95026.22;5020955;28;20063;-81
2023/06/14 06:59:37;;;;;;;26.73;15.18;;;;;;;20.31;69.18;95011.91;5037619;28;20041;-80
2023/06/14 07:02:03;;;;;;;24.45;15.77;;;;;;;20.21;69.47;94993.56;5032469;28;20519;-81
2023/06/14 07:04:29;;;;;;;20.23;15.23;;;;;;;20.72;69.54;95056.69;5018013;28;20499;-80
2023/06/14 07:06:56;;;;;;;28.67;17.23;;;;;;;20.67;69.35;95038.03;5021296;28;20082;-80
2023/06/14 07:09:22;;;;;;;29.48;18.00;;;;;;;20.44;69.20;94987.72;5024007;28;20061;-80
2023/06/14 07:11:48;;;;;;;29.50;17.10;;;;;;;20.53;69.02;94999.91;5013694;28;20035;-80
2023/06/14 07:14:13;;;;;;;26.33;16.45;;;;;;;20.75;68.74;95028.28;5036237;28;20034;-80
2023/06/14 07:16:42;;;;;;;24.48;16.55;;;;;;;20.75;68.85;95004.03;5023595;28;20037;-81
2023/06/14 07:19:09;;;;;;;25.10;16.83;;;;;;;20.94;68.51;95022.25;5039923;28;20116;-80
2023/06/14 07:21:35;;;;;;;30.13;18.20;;;;;;;20.83;68.12;94994.97;5023628;28;20658;-79
2023/06/14 07:24:00;;;;;;;25.95;16.67;;;;;;;20.99;67.48;95005.81;5033911;28;20128;-80
2023/06/14 07:26:26;;;;;;;20.80;15.70;;;;;;;21.33;65.96;95055.72;5015177;28;20622;-80
2023/06/14 07:28:52;;;;;;;26.67;15.60;;;;;;;21.09;65.58;95006.13;5037417;28;20200;-79
2023/06/14 07:31:19;;;;;;;27.77;17.20;;;;;;;21.24;65.83;95017.31;5018250;28;20087;-80
2023/06/14 07:33:44;;;;;;;25.85;18.52;;;;;;;21.17;66.12;94985.56;5017523;28;20120;-79
2023/06/14 07:36:10;;;;;;;25.20;18.05;;;;;;;21.33;66.22;95015.25;5038333;28;20140;-80
2023/06/14 07:38:36;;;;;;;28.92;17.20;;;;;;;21.26;65.94;95012.38;5020109;28;20120;-79
2023/06/14 07:41:02;;;;;;;23.90;16.48;;;;;;;21.23;64.53;95015.75;5036422;28;20519;-80
2023/06/14 07:43:27;;;;;;;25.75;15.45;;;;;;;21.36;64.31;95012.63;5036406;28;20041;-79
2023/06/14 07:45:53;;;;;;;29.83;19.52;;;;;;;21.20;64.67;94986.78;5032811;28;20190;-81
2023/06/14 07:48:18;;;;;;;29.15;19.35;;;;;;;21.74;65.02;95043.69;5013698;28;20040;-83
2023/06/14 07:50:44;;;;;;;24.15;17.35;;;;;;;21.49;64.86;95018.78;5034467;28;20033;-79
2023/06/14 07:53:09;;;;;;;24.63;15.82;;;;;;;21.54;63.33;95030.09;5039233;28;20487;-81
2023/06/14 07:55:36;;;;;;;25.15;17.48;;;;;;;21.18;64.55;95028.38;5020272;28;20029;-79
2023/06/14 07:58:03;;;;;;;27.17;17.70;;;;;;;21.39;65.46;95022.75;5014881;28;20471;-80
2023/06/14 08:00:28;;;;;;;29.67;16.77;;;;;;;21.27;64.41;94989.69;5034951;28;20133;-80
2023/06/14 08:02:58;;;;;;;22.02;15.77;;;;;;;21.37;62.98;95003.41;5036138;28;20152;-81
2023/06/14 08:05:25;;;;;;;26.73;15.55;;;;;;;21.77;62.27;95046.47;5022334;28;20404;-82
2023/06/14 08:07:52;;;;;;;19.63;15.10;;;;;;;21.98;61.57;95043.53;5015914;28;20535;-81
2023/06/14 08:10:18;;;;;;;23.77;14.90;;;;;;;22.26;61.53;95071.25;5031527;28;20457;-82
2023/06/14 08:12:43;;;;;;;22.83;15.85;;;;;;;22.02;61.35;95038.25;5034687;28;20029;-84
2023/06/14 08:15:09;;;;;;;20.90;14.57;;;;;;;22.26;61.14;95071.25;5013636;28;20155;-82
2023/06/14 08:17:35;;;;;;;17.15;13.20;;;;;;;22.33;61.20;95063.31;5017479;28;20047;-83
2023/06/14 08:20:00;;;;;;;22.55;15.18;;;;;;;22.17;60.85;95053.66;5037614;28;20083;-84
2023/06/14 08:22:27;;;;;;;21.27;12.60;;;;;;;22.18;60.03;95047.91;5038901;28;20453;-82
2023/06/14 08:24:54;;;;;;;18.67;14.05;;;;;;;22.54;59.63;95083.84;5033292;28;20037;-84
2023/06/14 08:27:19;;;;;;;22.35;13.00;;;;;;;22.32;59.66;95034.72;5033278;28;20029;-82
2023/06/14 08:29:45;;;;;;;17.50;13.27;;;;;;;22.40;59.58;95032.97;5034589;28;20043;-84
2023/06/14 08:32:13;;;;;;;19.23;14.23;;;;;;;22.43;58.98;95045.78;5016692;28;20040;-82
2023/06/14 08:34:40;;;;;;;17.27;12.57;;;;;;;22.52;58.26;95038.25;5041100;28;20268;-84
2023/06/14 08:37:06;;;;;;;18.02;12.93;;;;;;;22.66;57.46;95038.56;5013250;28;20037;-83
2023/06/14 08:39:31;;;;;;;21.80;12.75;;;;;;;22.75;56.77;95046.50;5017929;28;20029;-84
2023/06/14 08:41:58;;;;;;;19.80;12.07;;;;;;;22.99;56.89;95067.88;5014860;28;20155;-84
2023/06/14 08:44:30;;;;;;;14.98;11.40;;;;;;;23.21;57.39;95079.16;5005459;28;20045;-83
2023/06/14 08:46:59;;;;;;;18.85;12.00;;;;;;;22.85;57.05;95002.69;4995705;28;20384;-84
2023/06/14 08:49:25;;;;;;;16.50;11.32;;;;;;;23.43;56.92;95073.78;5024439;28;20511;-85
2023/06/14 08:51:59;;;;;;;19.02;11.60;;;;;;;23.55;57.49;95070.19;5013214;28;20116;-82
2023/06/14 08:54:30;;;;;;;16.23;10.90;;;;;;;23.36;57.06;95024.94;5032336;28;20064;-83
2023/06/14 08:56:57;;;;;;;14.35;10.35;;;;;;;23.36;56.57;95067.47;5031119;28;20048;-83
2023/06/14 08:59:38;;;;;;;16.90;11.27;;;;;;;22.87;56.10;94967.19;5032906;28;20043;-84
2023/06/14 09:02:05;;;;;;;18.55;11.23;;;;;;;23.36;55.78;95040.41;5028580;28;20033;-84
2023/06/14 09:04:32;;;;;;;18.17;11.23;;;;;;;23.32;55.44;95015.22;5016705;28;20060;-83
2023/06/14 09:06:59;;;;;;;17.30;11.55;;;;;;;23.12;54.34;95024.47;5012965;28;20590;-85
2023/06/14 09:09:25;;;;;;;13.55;10.60;;;;;;;22.91;54.72;94976.94;5016887;28;20044;-85
2023/06/14 09:11:51;;;;;;;26.77;11.85;;;;;;;23.41;54.30;95021.97;5018442;28;20041;-84
2023/06/14 09:14:19;;;;;;;15.40;10.77;;;;;;;23.57;54.71;95023.84;5038065;28;20033;-84
2023/06/14 09:16:44;;;;;;;15.20;12.23;;;;;;;23.69;55.09;95026.34;5017075;28;20033;-83
2023/06/14 09:19:20;;;;;;;18.42;12.70;;;;;;;23.76;55.19;95029.97;5036098;28;20474;-86
2023/06/14 09:21:47;;;;;;;14.18;10.95;;;;;;;23.99;54.51;95037.31;5036792;28;20063;-83
2023/06/14 09:24:14;;;;;;;15.50;11.70;;;;;;;23.82;54.86;95008.78;5013190;28;20033;-82
2023/06/14 09:26:41;;;;;;;16.83;11.52;;;;;;;23.59;54.35;94953.84;5035226;28;20037;-83
2023/06/14 09:29:07;;;;;;;14.18;11.70;;;;;;;23.96;52.64;95021.78;5037113;28;20742;-82
2023/06/14 09:31:32;;;;;;;13.00;10.75;;;;;;;24.35;52.67;95049.53;5021710;28;20028;-86
2023/06/14 09:34:02;;;;;;;19.65;11.70;;;;;;;24.35;52.76;95015.06;5016716;28;20052;-85
2023/06/14 09:36:27;;;;;;;18.15;11.75;;;;;;;24.48;53.17;95026.50;5019641;28;20048;-82
2023/06/14 09:38:57;;;;;;;13.63;11.25;;;;;;;24.72;53.95;95052.41;5034483;28;20025;-85
2023/06/14 09:41:33;;;;;;;15.52;10.82;;;;;;;24.80;54.22;95043.97;5039427;28;20024;-82
2023/06/14 09:44:09;;;;;;;10.63;8.70;;;;;;;25.12;52.41;95020.00;5016650;28;20415;-84
2023/06/14 09:46:35;;;;;;;14.63;9.63;;;;;;;25.73;51.49;95008.66;5018117;28;20537;-85
2023/06/14 09:49:02;;;;;;;16.33;10.68;;;;;;;26.19;49.95;94991.19;5033364;28;20033;-84
2023/06/14 09:51:30;;;;;;;16.83;10.40;;;;;;;26.60;48.30;95008.22;5017590;28;20108;-84
2023/06/14 09:54:04;;;;;;;13.95;11.27;;;;;;;26.72;46.96;95003.22;5031705;28;20218;-82
2023/06/14 09:56:36;;;;;;;14.90;10.95;;;;;;;27.01;46.35;95017.75;5017735;28;20060;-83
2023/06/14 09:59:05;;;;;;;20.20;11.23;;;;;;;27.00;45.79;94997.19;5018077;28;20045;-83
2023/06/14 10:01:31;;;;;;;18.52;10.52;;;;;;;26.76;45.19;94965.94;5037126;28;20168;-83
2023/06/14 10:04:05;;;;;;;13.63;11.00;;;;;;;26.12;45.58;94968.25;5013991;28;20040;-84
2023/06/14 10:06:32;;;;;;;14.65;10.65;;;;;;;26.45;45.65;95019.00;5015659;28;20132;-83
2023/06/14 10:08:59;;;;;;;12.60;8.48;;;;;;;25.69;46.19;94904.66;5001132;28;20107;-84
2023/06/14 10:11:28;;;;;;;13.25;10.25;;;;;;;26.49;46.26;95013.56;5020155;28;20033;-86
2023/06/14 10:13:58;;;;;;;15.23;10.90;;;;;;;26.85;46.63;95015.31;5035873;28;20136;-81
2023/06/14 10:16:36;;;;;;;19.88;11.60;;;;;;;27.28;45.06;95010.09;5015406;28;20032;-81
2023/06/14 10:19:18;;;;;;;17.92;10.20;;;;;;;27.41;44.44;94992.25;5031101;28;20131;-82
2023/06/14 10:22:18;;;;;;;13.57;10.27;;;;;;;27.98;43.39;95004.06;5030975;28;20112;-81
2023/06/14 10:24:45;;;;;;;14.30;9.73;;;;;;;27.92;42.80;94983.78;5032397;28;20084;-82
2023/06/14 10:27:14;;;;;;;17.88;10.20;;;;;;;27.11;42.15;94926.44;5034533;28;20519;-82
2023/06/14 10:29:58;;;;;;;17.30;10.32;;;;;;;27.49;42.86;94995.75;5016967;28;20771;-82
2023/06/14 10:32:25;;;;;;;11.88;10.38;;;;;;;27.11;42.67;94959.88;5016168;28;20036;-82
2023/06/14 10:34:56;;;;;;;14.70;9.35;;;;;;;27.69;42.68;95004.41;5021619;28;20566;-80
2023/06/14 10:37:21;;;;;;;14.45;9.18;;;;;;;27.95;42.29;95004.81;5037174;28;20052;-81
2023/06/14 10:39:47;;;;;;;11.90;8.45;;;;;;;28.18;41.66;94979.16;5016133;28;20026;-81
2023/06/14 10:42:14;;;;;;;12.90;9.43;;;;;;;28.24;41.28;94989.25;5016615;28;20067;-81
2023/06/14 10:44:51;;;;;;;15.48;9.73;;;;;;;27.72;41.57;94946.41;5001583;28;20500;-80
2023/06/14 10:47:37;;;;;;;15.18;9.73;;;;;;;27.84;42.41;94973.28;5019778;28;20536;-81
2023/06/14 10:50:08;;;;;;;13.93;9.60;;;;;;;27.93;42.52;94992.75;5015471;28;20028;-80
2023/06/14 10:52:35;;;;;;;;;;;;;;;27.91;42.09;94989.66;5021605;28;20032;-80
2023/06/14 10:55:14;;;;;;;16.73;8.82;;;;;;;27.89;43.25;94986.53;5038635;28;20394;-80
2023/06/14 10:57:45;;;;;;;11.05;9.52;;;;;;;27.79;43.70;94985.34;5036975;28;20079;-81
2023/06/14 11:00:13;;;;;;;13.63;8.57;;;;;;;27.26;44.96;94901.59;5020444;28;20055;-81
2023/06/14 11:02:57;;;;;;;12.43;8.30;;;;;;;27.72;44.28;94965.47;5039577;28;20072;-81
2023/06/14 11:05:27;;;;;;;11.70;8.32;;;;;;;27.95;43.70;94963.16;5036429;28;20047;-81
2023/06/14 11:08:18;;;;;;;10.02;7.90;;;;;;;27.83;43.51;94873.63;5023457;28;20425;-81
2023/06/14 11:10:45;;;;;;;12.82;9.05;;;;;;;28.75;41.66;94952.53;5033789;28;20041;-80
2023/06/14 11:13:11;;;;;;;13.15;8.68;;;;;;;28.88;39.61;94953.69;5018089;28;20451;-82
2023/06/14 11:15:38;;;;;;;13.35;9.20;;;;;;;29.10;39.65;94955.16;5025766;28;20033;-81
2023/06/14 11:18:09;;;;;;;11.15;8.23;;;;;;;29.40;41.10;94929.28;5024438;28;20151;-81
2023/06/14 11:20:35;;;;;;;;;;;;;;;29.95;39.27;94953.13;5021344;28;20032;-82
2023/06/14 11:23:01;;;;;;;12.18;8.82;;;;;;;29.85;38.41;94932.84;5021820;28;20402;-81